createdAt,value
2023-11-13T00:01:49.185Z,95140.70
2023-11-13T00:05:39.113Z,95147.41
2023-11-13T00:09:28.756Z,95150.59
2023-11-13T00:13:18.456Z,95150.42
2023-11-13T00:17:08.455Z,95151.27
2023-11-13T00:20:58.320Z,95160.28
2023-11-13T00:24:47.608Z,95162.39
2023-11-13T00:28:37.061Z,95162.68
2023-11-13T00:32:26.601Z,95157.82
2023-11-13T00:36:09.380Z,95159.65
2023-11-13T00:39:44.240Z,95162.67
2023-11-13T00:43:33.597Z,95172.66
2023-11-13T00:47:23.307Z,95172.27
2023-11-13T00:51:12.531Z,95175.82
2023-11-13T00:55:02.206Z,95175.44
2023-11-13T00:58:51.749Z,95178.88
2023-11-13T01:02:41.350Z,95180.13
2023-11-13T01:06:31.278Z,95186.45
2023-11-13T01:10:20.674Z,95185.66
2023-11-13T01:14:00.871Z,95187.03
2023-11-13T01:17:50.935Z,95190.10
2023-11-13T01:21:40.842Z,95188.42
2023-11-13T01:25:30.153Z,95187.11
2023-11-13T01:29:02.685Z,95188.84
2023-11-13T01:32:52.285Z,95190.20
2023-11-13T01:36:41.959Z,95193.23
2023-11-13T01:40:31.684Z,95195.15
2023-11-13T01:44:21.408Z,95193.83
2023-11-13T01:48:11.060Z,95199.50
2023-11-13T01:52:00.904Z,95202.05
2023-11-13T01:55:32.991Z,95207.51
2023-11-13T01:59:22.536Z,95197.23
2023-11-13T02:03:12.034Z,95188.90
2023-11-13T02:07:01.975Z,95182.09
2023-11-13T02:10:52.919Z,95176.90
2023-11-13T02:14:42.358Z,95170.14
2023-11-13T02:18:40.729Z,95175.44
2023-11-13T02:22:28.551Z,95184.38
2023-11-13T02:26:18.150Z,95191.75
2023-11-13T02:30:07.792Z,95199.14
2023-11-13T02:33:57.186Z,95204.63
2023-11-13T02:37:39.212Z,95208.56
2023-11-13T02:41:28.915Z,95215.69
2023-11-13T02:45:05.900Z,95215.56
2023-11-13T02:48:55.624Z,95211.36
2023-11-13T02:52:45.302Z,95212.59
2023-11-13T02:56:34.982Z,95210.52
2023-11-13T03:00:24.572Z,95212.84
2023-11-13T03:04:14.175Z,95215.36
2023-11-13T03:08:03.678Z,95211.55
2023-11-13T03:11:55.813Z,95208.01
2023-11-13T03:15:45.252Z,95211.30
2023-11-13T03:19:27.781Z,95210.86
2023-11-13T03:23:17.275Z,95208.45
2023-11-13T03:27:07.039Z,95205.56
2023-11-13T03:30:59.727Z,95208.52
2023-11-13T03:34:49.620Z,95206.15
2023-11-13T03:38:39.156Z,95213.31
2023-11-13T03:42:28.775Z,95212.40
2023-11-13T03:46:18.514Z,95212.32
2023-11-13T03:50:05.590Z,95216.23
2023-11-13T03:53:55.269Z,95219.27
2023-11-13T03:57:44.948Z,95217.63
2023-11-13T04:01:24.345Z,95222.72
2023-11-13T04:05:14.081Z,95227.30
2023-11-13T04:09:03.686Z,95234.02
2023-11-13T04:12:33.438Z,95235.00
2023-11-13T04:16:22.913Z,95234.59
2023-11-13T04:19:56.451Z,95239.58
2023-11-13T04:23:28.794Z,95238.99
2023-11-13T04:27:08.026Z,95238.28
2023-11-13T04:30:51.479Z,95245.18
2023-11-13T04:34:41.140Z,95255.80
2023-11-13T04:38:30.524Z,95256.87
2023-11-13T04:41:52.706Z,95261.36
2023-11-13T04:45:42.207Z,95265.81
2023-11-13T04:49:31.944Z,95273.45
2023-11-13T04:53:21.504Z,95282.19
2023-11-13T04:57:12.112Z,95286.56
2023-11-13T05:00:11.610Z,95296.93
2023-11-13T05:04:01.781Z,95294.17
2023-11-13T05:07:52.051Z,95297.27
2023-11-13T05:11:41.018Z,95298.52
2023-11-13T05:15:03.582Z,95301.66
2023-11-13T05:18:43.206Z,95305.35
2023-11-13T05:22:26.367Z,95303.83
2023-11-13T05:26:16.123Z,95305.82
2023-11-13T05:30:06.981Z,95303.04
2023-11-13T05:33:56.430Z,95308.02
2023-11-13T05:37:46.040Z,95312.34
2023-11-13T05:41:35.409Z,95318.38
2023-11-13T05:45:24.748Z,95313.45
2023-11-13T05:49:14.457Z,95307.89
2023-11-13T05:53:10.096Z,95304.84
2023-11-13T05:56:59.730Z,95298.27
2023-11-13T06:00:48.336Z,95300.25
2023-11-13T06:04:38.112Z,95297.51
2023-11-13T06:08:28.061Z,95294.04
2023-11-13T06:12:10.529Z,95297.09
2023-11-13T06:16:00.052Z,95299.67
2023-11-13T06:19:35.707Z,95296.02
2023-11-13T06:23:25.144Z,95294.55
2023-11-13T06:27:14.564Z,95303.70
2023-11-13T06:31:04.313Z,95308.97
2023-11-13T06:34:54.143Z,95300.56
2023-11-13T06:38:33.526Z,95300.45
2023-11-13T06:42:31.616Z,95294.34
2023-11-13T06:46:19.998Z,95299.16
2023-11-13T06:50:00.371Z,95297.51
2023-11-13T06:53:50.007Z,95292.59
2023-11-13T06:57:39.550Z,95288.11
2023-11-13T07:01:29.255Z,95286.42
2023-11-13T07:05:18.840Z,95286.97
2023-11-13T07:09:09.048Z,95287.58
2023-11-13T07:12:59.671Z,95287.45
2023-11-13T07:16:49.828Z,95290.61
2023-11-13T07:20:39.430Z,95289.73
2023-11-13T07:24:28.956Z,95292.33
2023-11-13T07:28:18.647Z,95294.29
2023-11-13T07:32:08.489Z,95295.00
2023-11-13T07:35:58.206Z,95296.54
2023-11-13T07:39:47.645Z,95291.92
2023-11-13T07:43:37.125Z,95297.02
2023-11-13T07:47:26.690Z,95297.06
2023-11-13T07:51:16.277Z,95299.44
2023-11-13T07:55:05.974Z,95298.98
2023-11-13T07:58:55.587Z,95293.74
2023-11-13T08:02:45.450Z,95290.06
2023-11-13T08:06:35.214Z,95286.57
2023-11-13T08:10:15.781Z,95292.55
2023-11-13T08:14:05.518Z,95301.59
2023-11-13T08:17:55.032Z,95302.18
2023-11-13T08:21:45.601Z,95304.34
2023-11-13T08:25:29.669Z,95302.27
2023-11-13T08:29:19.352Z,95296.11
2023-11-13T08:33:08.868Z,95296.56
2023-11-13T08:36:59.965Z,95294.72
2023-11-13T08:40:50.901Z,95287.52
2023-11-13T08:44:40.457Z,95277.15
2023-11-13T08:48:30.183Z,95278.31
2023-11-13T08:52:19.831Z,95277.18
2023-11-13T08:56:09.608Z,95266.39
2023-11-13T08:59:59.275Z,95265.55
2023-11-13T09:03:49.257Z,95271.36
2023-11-13T09:07:39.173Z,95271.07
2023-11-13T09:11:28.675Z,95268.82
2023-11-13T09:15:18.224Z,95259.67
2023-11-13T09:19:07.926Z,95254.23
2023-11-13T09:22:59.688Z,95257.08
2023-11-13T09:26:51.444Z,95253.55
2023-11-13T09:30:47.327Z,95253.39
2023-11-13T09:34:36.785Z,95250.71
2023-11-13T09:38:26.225Z,95244.50
2023-11-13T09:42:15.751Z,95243.88
2023-11-13T09:46:08.506Z,95240.44
2023-11-13T09:49:58.605Z,95237.42
2023-11-13T09:53:49.121Z,95236.02
2023-11-13T09:57:38.582Z,95236.49
2023-11-13T10:01:28.325Z,95233.23
2023-11-13T10:05:18.374Z,95220.34
2023-11-13T10:09:08.052Z,95225.64
2023-11-13T10:12:57.574Z,95215.77
2023-11-13T10:17:00.824Z,95217.98
2023-11-13T10:21:02.587Z,95209.73
2023-11-13T10:24:56.110Z,95205.84
2023-11-13T10:28:47.297Z,95207.50
2023-11-13T10:32:37.122Z,95191.89
2023-11-13T10:36:30.921Z,95181.92
2023-11-13T10:40:22.183Z,95177.22
2023-11-13T10:44:14.504Z,95171.36
2023-11-13T10:48:13.099Z,95163.12
2023-11-13T10:52:02.640Z,95151.44
2023-11-13T10:55:53.232Z,95147.83
2023-11-13T10:59:42.865Z,95140.61
2023-11-13T11:03:32.351Z,95136.15
2023-11-13T11:07:22.253Z,95122.50
2023-11-13T11:11:12.028Z,95101.75
2023-11-13T11:14:56.897Z,95098.70
2023-11-13T11:18:58.464Z,95089.42
2023-11-13T11:22:51.732Z,95089.67
2023-11-13T11:26:40.988Z,95082.91
2023-11-13T11:30:35.228Z,95072.96
2023-11-13T11:34:27.397Z,95080.30
2023-11-13T11:38:09.577Z,95086.71
2023-11-13T11:42:07.862Z,95085.94
2023-11-13T11:45:57.853Z,95089.27
2023-11-13T11:49:38.104Z,95088.38
2023-11-13T11:53:42.950Z,95079.63
2023-11-13T11:57:38.369Z,95074.46
2023-11-13T12:01:28.049Z,95077.65
2023-11-13T12:05:12.057Z,95082.27
2023-11-13T12:09:01.686Z,95081.57
2023-11-13T12:12:51.406Z,95090.59
2023-11-13T12:16:41.171Z,95088.70
2023-11-13T12:20:30.689Z,95085.30
2023-11-13T12:24:21.112Z,95078.78
2023-11-13T12:28:10.650Z,95070.28
2023-11-13T12:32:00.273Z,95058.30
2023-11-13T12:35:50.141Z,95057.70
2023-11-13T12:39:22.877Z,95056.26
2023-11-13T12:43:12.482Z,95057.91
2023-11-13T12:47:04.818Z,95065.69
2023-11-13T12:50:54.335Z,95068.16
2023-11-13T12:54:43.875Z,95067.83
2023-11-13T12:58:15.862Z,95058.63
2023-11-13T13:01:48.763Z,95055.32
2023-11-13T13:05:29.806Z,95050.10
2023-11-13T13:09:15.593Z,95050.23
2023-11-13T13:13:05.184Z,95045.09
2023-11-13T13:16:55.156Z,95037.15
2023-11-13T13:20:53.900Z,95041.80
2023-11-13T13:24:43.638Z,95044.49
2023-11-13T13:28:33.333Z,95041.55
2023-11-13T13:32:22.888Z,95039.35
2023-11-13T13:36:12.487Z,95041.92
2023-11-13T13:40:01.979Z,95043.30
2023-11-13T13:43:51.399Z,95043.32
2023-11-13T13:47:43.894Z,95046.83
2023-11-13T13:51:36.548Z,95061.28
2023-11-13T13:55:26.071Z,95062.63
2023-11-13T13:59:16.061Z,95063.09
2023-11-13T14:03:08.276Z,95056.02
2023-11-13T14:07:01.314Z,95049.73
2023-11-13T14:10:52.989Z,95054.55
2023-11-13T14:14:43.702Z,95058.52
2023-11-13T14:18:33.434Z,95064.16
2023-11-13T14:22:23.222Z,95072.84
2023-11-13T14:26:12.995Z,95073.69
2023-11-13T14:30:02.508Z,95083.17
2023-11-13T14:33:52.233Z,95083.98
2023-11-13T14:37:34.758Z,95083.95
2023-11-13T14:41:27.346Z,95087.83
2023-11-13T14:45:16.957Z,95089.56
2023-11-13T14:49:06.442Z,95081.63
2023-11-13T14:52:56.653Z,95081.91
2023-11-13T14:56:46.741Z,95078.56
2023-11-13T15:00:36.539Z,95087.14
2023-11-13T15:04:26.214Z,95092.64
2023-11-13T15:08:15.881Z,95093.17
2023-11-13T15:12:05.612Z,95083.89
2023-11-13T15:15:55.319Z,95088.14
2023-11-13T15:19:44.889Z,95091.66
2023-11-13T15:23:44.409Z,95090.68
2023-11-13T15:27:16.154Z,95088.46
2023-11-13T15:30:40.130Z,95091.05
2023-11-13T15:34:30.038Z,95089.33
2023-11-13T15:38:19.609Z,95093.10
2023-11-13T15:41:58.786Z,95083.38
2023-11-13T15:45:41.175Z,95074.52
2023-11-13T15:49:20.665Z,95080.66
2023-11-13T15:53:10.198Z,95096.53
2023-11-13T15:56:40.813Z,95087.09
2023-11-13T15:59:52.890Z,95095.58
2023-11-13T16:03:05.654Z,95090.61
2023-11-13T16:06:57.147Z,95093.36
2023-11-13T16:10:39.831Z,95089.85
2023-11-13T16:14:09.489Z,95082.50
2023-11-13T16:17:48.151Z,95087.56
2023-11-13T16:21:40.525Z,95095.52
2023-11-13T16:25:30.293Z,95080.68
2023-11-13T16:29:19.941Z,95087.34
2023-11-13T16:33:09.744Z,95084.73
2023-11-13T16:36:59.449Z,95088.68
2023-11-13T16:40:49.099Z,95090.63
2023-11-13T16:44:38.763Z,95092.23
2023-11-13T16:48:28.408Z,95095.08
2023-11-13T16:52:18.087Z,95104.17
2023-11-13T16:56:07.811Z,95102.72
2023-11-13T16:59:57.509Z,95103.46
2023-11-13T17:03:47.281Z,95096.63
2023-11-13T17:07:36.937Z,95093.80
2023-11-13T17:11:26.609Z,95099.98
2023-11-13T17:15:16.655Z,95105.29
2023-11-13T17:19:06.215Z,95097.18
2023-11-13T17:22:55.980Z,95091.42
2023-11-13T17:26:45.676Z,95087.33
2023-11-13T17:30:35.236Z,95083.42
2023-11-13T17:34:24.959Z,95087.66
2023-11-13T17:38:15.111Z,95082.05
2023-11-13T17:42:04.833Z,95077.41
2023-11-13T17:45:54.561Z,95073.40
2023-11-13T17:49:44.330Z,95073.56
2023-11-13T17:53:33.914Z,95077.92
2023-11-13T17:57:23.508Z,95077.23
2023-11-13T18:01:13.302Z,95082.05
2023-11-13T18:05:02.903Z,95083.02
2023-11-13T18:08:53.220Z,95093.13
2023-11-13T18:12:35.603Z,95095.62
2023-11-13T18:16:25.616Z,95093.04
2023-11-13T18:20:15.523Z,95094.90
2023-11-13T18:24:05.470Z,95089.02
2023-11-13T18:27:55.055Z,95089.37
2023-11-13T18:31:44.724Z,95088.00
2023-11-13T18:35:33.066Z,95094.35
2023-11-13T18:39:24.186Z,95088.61
2023-11-13T18:43:19.741Z,95093.09
2023-11-13T18:47:09.301Z,95091.31
2023-11-13T18:50:58.920Z,95095.02
2023-11-13T18:54:48.393Z,95086.33
2023-11-13T18:58:37.889Z,95077.63
2023-11-13T19:02:27.599Z,95072.39
2023-11-13T19:06:17.148Z,95075.02
2023-11-13T19:10:06.512Z,95081.72
2023-11-13T19:13:56.142Z,95080.69
2023-11-13T19:17:46.358Z,95085.30
2023-11-13T19:21:36.698Z,95075.25
2023-11-13T19:25:29.115Z,95076.29
2023-11-13T19:29:18.819Z,95072.45
2023-11-13T19:33:04.110Z,95071.09
2023-11-13T19:36:54.388Z,95078.55
2023-11-13T19:40:42.853Z,95087.16
2023-11-13T19:45:19.028Z,95090.02
2023-11-13T19:48:44.337Z,95098.31
2023-11-13T19:52:41.994Z,95081.15
2023-11-13T19:56:19.411Z,95084.64
2023-11-13T20:00:09.137Z,95090.75
2023-11-13T20:03:58.819Z,95083.19
2023-11-13T20:07:49.437Z,95083.40
2023-11-13T20:11:38.959Z,95090.16
2023-11-13T20:15:28.632Z,95087.05
2023-11-13T20:19:10.771Z,95096.45
2023-11-13T20:23:00.937Z,95094.73
2023-11-13T20:26:50.838Z,95095.15
2023-11-13T20:30:30.686Z,95094.01
2023-11-13T20:34:21.520Z,95085.95
2023-11-13T20:38:11.235Z,95075.48
2023-11-13T20:42:01.126Z,95074.05
2023-11-13T20:45:50.848Z,95082.02
2023-11-13T20:49:41.034Z,95083.35
2023-11-13T20:53:30.630Z,95077.16
2023-11-13T20:57:20.155Z,95077.38
2023-11-13T21:00:51.550Z,95069.73
2023-11-13T21:04:41.157Z,95070.59
2023-11-13T21:08:20.021Z,95069.13
2023-11-13T21:12:12.373Z,95073.43
2023-11-13T21:15:42.154Z,95066.21
2023-11-13T21:19:16.571Z,95063.20
2023-11-13T21:23:06.093Z,95055.59
2023-11-13T21:26:45.636Z,95057.67
2023-11-13T21:30:34.291Z,95055.67
2023-11-13T21:34:24.013Z,95055.80
2023-11-13T21:38:13.615Z,95053.40
2023-11-13T21:42:03.307Z,95048.20
2023-11-13T21:45:53.180Z,95041.45
2023-11-13T21:49:43.287Z,95036.56
2023-11-13T21:53:33.416Z,95029.69
2023-11-13T21:57:23.111Z,95028.57
2023-11-13T22:01:12.896Z,95026.89
2023-11-13T22:05:02.893Z,95018.29
2023-11-13T22:08:52.573Z,95013.11
2023-11-13T22:12:42.300Z,95000.23
2023-11-13T22:16:32.268Z,94998.02
2023-11-13T22:20:21.811Z,94996.48
2023-11-13T22:24:12.272Z,94999.55
2023-11-13T22:28:02.481Z,95012.17
2023-11-13T22:31:52.301Z,95011.71
2023-11-13T22:35:42.742Z,95007.77
2023-11-13T22:39:32.791Z,95008.69
2023-11-13T22:43:22.001Z,95002.19
2023-11-13T22:47:11.856Z,95008.70
2023-11-13T22:51:03.032Z,95017.52
2023-11-13T22:54:52.607Z,95020.79
2023-11-13T22:58:42.442Z,95020.68
2023-11-13T23:02:23.868Z,95024.53
2023-11-13T23:06:13.564Z,95026.81
2023-11-13T23:10:03.751Z,95032.52
2023-11-13T23:13:53.301Z,95034.67
2023-11-13T23:17:58.549Z,95030.35
2023-11-13T23:21:59.576Z,95027.15
2023-11-13T23:25:53.588Z,95022.41
2023-11-13T23:29:43.249Z,95013.45
2023-11-13T23:33:32.778Z,95010.61
2023-11-13T23:37:22.514Z,95010.55
2023-11-13T23:41:12.661Z,95008.41
2023-11-13T23:45:02.216Z,95005.22
2023-11-13T23:48:50.688Z,94998.27
2023-11-13T23:52:40.291Z,94994.70
2023-11-13T23:56:30.114Z,94989.22
